createdAt,value
2024-04-30T00:00:51.165Z,934.4
2024-04-30T00:15:54.454Z,934.4
2024-04-30T00:30:52.038Z,934.9
2024-04-30T00:45:56.477Z,934.9
2024-04-30T01:00:53.469Z,933.8
2024-04-30T01:15:54.458Z,933.4
2024-04-30T01:30:56.364Z,934.5
2024-04-30T01:45:57.187Z,934.4
2024-04-30T02:00:57.919Z,933.5
2024-04-30T02:15:58.415Z,933.6
2024-04-30T02:30:58.921Z,933.6
2024-04-30T02:46:00.962Z,934
2024-04-30T03:01:01.672Z,933.4
2024-04-30T03:16:01.937Z,933.9
2024-04-30T03:31:01.951Z,934.6
2024-04-30T03:46:04.086Z,933.9
2024-04-30T03:56:36.272Z,933.4
2024-04-30T04:11:37.703Z,933.4
2024-04-30T04:26:43.282Z,933.4
2024-04-30T04:41:38.537Z,933.2
2024-04-30T04:56:39.025Z,933.8
2024-04-30T05:11:40.056Z,933.8
2024-04-30T05:26:47.163Z,933.8
2024-04-30T05:41:41.246Z,934.1
2024-04-30T05:56:41.275Z,933.2
2024-04-30T06:11:42.817Z,933.3
2024-04-30T06:26:43.033Z,932.6
2024-04-30T06:41:44.024Z,932.4
2024-04-30T06:56:43.619Z,932.5
2024-04-30T07:11:44.939Z,932.4
2024-04-30T07:26:44.426Z,932.2
2024-04-30T07:41:46.179Z,932.2
2024-04-30T07:56:45.790Z,932.1
2024-04-30T08:11:48.076Z,931.9
2024-04-30T08:26:48.683Z,931.8
2024-04-30T08:41:51.246Z,931.8
2024-04-30T08:56:48.467Z,931.7
2024-04-30T09:11:50.556Z,931.6
2024-04-30T09:26:50.648Z,931.5
2024-04-30T09:41:52.331Z,931.3
2024-04-30T09:56:51.914Z,931.1
2024-04-30T10:11:52.349Z,931.1
2024-04-30T10:26:53.303Z,930.9
2024-04-30T10:41:53.982Z,930.8
2024-04-30T10:56:54.296Z,930.7
2024-04-30T11:11:55.553Z,930.5
2024-04-30T11:26:55.676Z,930.3
2024-04-30T11:42:45.012Z,930.4
2024-04-30T11:56:57.954Z,930.2
2024-04-30T12:11:57.361Z,930
2024-04-30T12:26:59.792Z,929.9
2024-04-30T12:41:59.085Z,929.9
2024-04-30T12:57:00.346Z,929.8
2024-04-30T13:12:00.012Z,929.6
2024-04-30T13:27:01.299Z,929.3
2024-04-30T13:42:01.972Z,929.2
2024-04-30T13:57:02.238Z,929
2024-04-30T14:12:03.617Z,928.9
2024-04-30T14:27:05.656Z,928.9
2024-04-30T14:42:05.447Z,928.7
2024-04-30T14:57:06.017Z,928.6
2024-04-30T15:12:06.350Z,928.4
2024-04-30T15:27:08.292Z,928.2
2024-04-30T15:42:12.702Z,928.2
2024-04-30T15:57:11.765Z,928.2
2024-04-30T16:12:09.070Z,928.1
2024-04-30T16:27:08.992Z,928
2024-04-30T16:42:12.886Z,928
2024-04-30T16:57:11.941Z,927.9
2024-04-30T17:12:12.066Z,927.9
2024-04-30T17:27:12.050Z,927.9
2024-04-30T17:42:12.264Z,927.9
2024-04-30T17:57:14.251Z,927.9
2024-04-30T18:12:13.985Z,927.9
2024-04-30T18:27:15.236Z,927.9
2024-04-30T18:42:15.546Z,928.1
2024-04-30T18:57:23.942Z,928.1
2024-04-30T19:27:33.116Z,928.1
2024-04-30T19:42:59.719Z,928.1
2024-04-30T19:57:28.592Z,928
2024-04-30T20:12:19.478Z,928
2024-04-30T20:27:20.266Z,927.8
2024-04-30T20:42:20.690Z,927.8
2024-04-30T20:57:21.605Z,927.7
2024-04-30T21:12:22.537Z,927.7
2024-04-30T21:27:27.957Z,927.5
2024-04-30T21:42:22.886Z,927.5
2024-04-30T21:57:24.131Z,927.5
2024-04-30T22:00:39.647Z,927.4
2024-04-30T22:15:37.416Z,927.3
2024-04-30T22:30:37.697Z,927.3
2024-04-30T22:45:41.322Z,927.2
2024-04-30T23:15:46.115Z,927.1
2024-04-30T23:30:51.770Z,927.1
2024-04-30T23:45:55.298Z,926.8
